Buffalo, North Dakota
Current Conditions -  °F | °C
As of 6:35 AM on Friday 31 Oct 2014 (Local Time) from KBAC Reporting Station
Clear Clear  
Wind Chill:   Ceiling: Unl
Heat Index: 14°   Visibility: 10mi
Dew Point: 14°   Wind: 7mph
Humidity: 100%   Direction: 320°NW
Pressure: 30.59"   Gusts: NA
Location:  46.92°N, 97.55°W
Report Text: KBAC 311135Z AUTO 32006KT 10SM CLR M10/M10 A3059 RMK AO2
Loading
Personal Weather Stations






























Interactive Weather Map
Tropical Storm Tracking
New forecast layout! Learn more

10-Day Weather Forecast

Advertisements
Track Severe Weather on mobile